createdAt,value
2022-12-28T00:00:07.182Z,101251.44
2022-12-28T00:02:40.663Z,101261.09
2022-12-28T00:05:10.251Z,101224.16
2022-12-28T00:07:38.597Z,101220.53
2022-12-28T00:10:09.426Z,101224.94
2022-12-28T00:12:37.756Z,101214.53
2022-12-28T00:15:07.431Z,101204.81
2022-12-28T00:17:35.773Z,101214.53
2022-12-28T00:20:04.260Z,101195.13
2022-12-28T00:22:32.526Z,101204.88
2022-12-28T00:25:00.844Z,101215.44
2022-12-28T00:27:30.572Z,101183.84
2022-12-28T00:30:00.704Z,101190.06
2022-12-28T00:32:29.887Z,101190.00
2022-12-28T00:34:58.308Z,101155.72
2022-12-28T00:37:28.081Z,101168.00
2022-12-28T00:39:57.336Z,101160.97
2022-12-28T00:42:25.731Z,101186.47
2022-12-28T00:44:55.420Z,101178.56
2022-12-28T00:47:23.799Z,101071.91
2022-12-28T00:49:52.138Z,101138.06
2022-12-28T00:52:20.693Z,101150.50
2022-12-28T00:54:49.112Z,101146.00
2022-12-28T00:57:17.423Z,100832.09
2022-12-28T00:59:45.719Z,101144.34
2022-12-28T01:02:15.486Z,101108.31
2022-12-28T01:04:43.921Z,101088.06
2022-12-28T01:07:12.609Z,101145.25
2022-12-28T01:09:42.021Z,101111.84
2022-12-28T01:12:10.297Z,101121.50
2022-12-28T01:14:38.566Z,101105.69
2022-12-28T01:17:06.881Z,101134.69
2022-12-28T01:19:36.641Z,101086.31
2022-12-28T01:22:06.167Z,101096.94
2022-12-28T01:24:34.542Z,101104.84
2022-12-28T01:27:03.129Z,101084.59
2022-12-28T01:29:31.707Z,101050.25
2022-12-28T01:32:00.062Z,101105.69
2022-12-28T01:34:30.993Z,101103.94
2022-12-28T01:37:00.615Z,101123.34
2022-12-28T01:39:29.286Z,101043.06
2022-12-28T01:41:57.887Z,101089.00
2022-12-28T01:44:45.969Z,101088.06
2022-12-28T01:47:19.735Z,101068.75
2022-12-28T01:49:59.599Z,101077.53
2022-12-28T01:52:34.846Z,101055.56
2022-12-28T01:55:10.193Z,101034.47
2022-12-28T01:57:44.630Z,101054.72
2022-12-28T02:00:16.176Z,101086.38
2022-12-28T02:02:54.661Z,101042.34
2022-12-28T02:05:28.291Z,101030.13
2022-12-28T02:08:03.928Z,101030.13
2022-12-28T02:10:44.578Z,101033.66
2022-12-28T02:13:16.205Z,101041.56
2022-12-28T02:15:45.819Z,101032.78
2022-12-28T02:18:15.777Z,101060.94
2022-12-28T02:21:03.824Z,100996.72
2022-12-28T02:24:04.883Z,101016.09
2022-12-28T02:26:48.639Z,101018.72
2022-12-28T02:29:55.309Z,101004.66
2022-12-28T02:32:48.447Z,101015.25
2022-12-28T02:35:24.318Z,101017.03
2022-12-28T02:37:59.039Z,101022.31
2022-12-28T02:40:34.014Z,101000.31
2022-12-28T02:43:04.428Z,100992.38
2022-12-28T02:45:57.516Z,101001.16
2022-12-28T02:48:43.871Z,100974.78
2022-12-28T02:51:48.695Z,100965.97
2022-12-28T02:55:31.196Z,100955.41
2022-12-28T02:58:23.824Z,101010.00
2022-12-28T03:01:11.168Z,100978.28
2022-12-28T03:03:54.160Z,100988.88
2022-12-28T03:06:48.479Z,100980.91
2022-12-28T03:09:25.451Z,101009.97
2022-12-28T03:12:00.201Z,101022.31
2022-12-28T03:14:37.298Z,101000.31
2022-12-28T03:17:28.787Z,100992.38
2022-12-28T03:20:21.884Z,100952.75
2022-12-28T03:23:09.153Z,100985.31
2022-12-28T03:26:01.451Z,100921.03
2022-12-28T03:28:55.093Z,100979.19
2022-12-28T03:31:29.054Z,100978.31
2022-12-28T03:34:07.618Z,100980.06
2022-12-28T03:36:49.356Z,100975.66
2022-12-28T03:39:26.577Z,100888.50
2022-12-28T03:42:18.240Z,100943.97
2022-12-28T03:44:56.043Z,100965.97
2022-12-28T03:47:27.775Z,100967.75
2022-12-28T03:49:57.741Z,100951.88
2022-12-28T03:52:26.721Z,100936.03
2022-12-28T03:54:55.091Z,100930.75
2022-12-28T03:57:24.514Z,100936.91
2022-12-28T03:59:52.955Z,100951.91
2022-12-28T04:02:21.434Z,100939.56
2022-12-28T04:04:50.152Z,100958.06
2022-12-28T04:07:19.838Z,100935.16
2022-12-28T04:09:50.042Z,100947.47
2022-12-28T04:12:18.431Z,100933.41
2022-12-28T04:15:08.440Z,100943.97
2022-12-28T04:17:36.917Z,100928.09
2022-12-28T04:20:06.956Z,100953.66
2022-12-28T04:22:37.082Z,100938.69
2022-12-28T04:25:06.372Z,100953.66
2022-12-28T04:27:36.450Z,100918.44
2022-12-28T04:30:13.182Z,100936.91
2022-12-28T04:32:42.328Z,100928.09
2022-12-28T04:35:10.845Z,100923.72
2022-12-28T04:37:48.885Z,100929.88
2022-12-28T04:40:17.220Z,100913.13
2022-12-28T04:42:45.706Z,100913.13
2022-12-28T04:45:18.397Z,100914.88
2022-12-28T04:47:50.197Z,100921.09
2022-12-28T04:50:18.747Z,100909.63
2022-12-28T04:52:48.417Z,100934.28
2022-12-28T04:55:32.469Z,100929.88
2022-12-28T04:58:01.973Z,100931.63
2022-12-28T05:00:30.329Z,100902.53
2022-12-28T05:03:00.779Z,100899.91
2022-12-28T05:05:30.615Z,100886.72
2022-12-28T05:08:02.485Z,100874.38
2022-12-28T05:10:31.450Z,100890.25
2022-12-28T05:12:59.795Z,100821.63
2022-12-28T05:15:28.099Z,100784.69
2022-12-28T05:17:57.198Z,100891.13
2022-12-28T05:20:25.559Z,100852.41
2022-12-28T05:22:53.861Z,100872.63
2022-12-28T05:25:23.624Z,100905.22
2022-12-28T05:27:51.939Z,100895.50
2022-12-28T05:30:20.259Z,100898.16
2022-12-28T05:32:48.583Z,100885.81
2022-12-28T05:35:17.127Z,100861.16
2022-12-28T05:37:45.414Z,100880.53
2022-12-28T05:40:13.873Z,100884.03
2022-12-28T05:42:47.997Z,100892.84
2022-12-28T05:45:20.048Z,100873.47
2022-12-28T05:47:48.517Z,100871.69
2022-12-28T05:50:17.198Z,100876.09
2022-12-28T05:52:45.693Z,100869.03
2022-12-28T05:55:14.071Z,100863.75
2022-12-28T05:57:43.766Z,100870.78
2022-12-28T06:00:13.457Z,100883.09
2022-12-28T06:02:41.986Z,100873.41
2022-12-28T06:05:10.845Z,100872.56
2022-12-28T06:07:39.233Z,100868.13
2022-12-28T06:10:09.255Z,100854.03
2022-12-28T06:12:37.586Z,100870.75
2022-12-28T06:15:09.014Z,100846.97
2022-12-28T06:17:37.402Z,100862.84
2022-12-28T06:20:07.095Z,100870.75
2022-12-28T06:22:36.154Z,100858.44
2022-12-28T06:25:04.795Z,100844.28
2022-12-28T06:27:33.027Z,100839.03
2022-12-28T06:30:01.302Z,100847.84
2022-12-28T06:32:31.072Z,100854.91
2022-12-28T06:34:59.342Z,100867.25
2022-12-28T06:37:27.593Z,100847.84
2022-12-28T06:39:55.915Z,100833.75
2022-12-28T06:42:24.178Z,100848.66
2022-12-28T06:44:52.456Z,100831.09
2022-12-28T06:47:20.727Z,100838.13
2022-12-28T06:49:50.377Z,100833.75
2022-12-28T06:52:18.739Z,100807.38
2022-12-28T06:54:47.036Z,100839.91
2022-12-28T06:57:15.273Z,100844.28
2022-12-28T06:59:43.558Z,100849.56
2022-12-28T07:02:12.042Z,100801.22
2022-12-28T07:04:40.417Z,100830.25
2022-12-28T07:07:10.924Z,100823.16
2022-12-28T07:09:39.222Z,100835.47
2022-12-28T07:12:07.994Z,100823.09
2022-12-28T07:14:36.353Z,100830.16
2022-12-28T07:17:04.685Z,100842.47
2022-12-28T07:19:33.004Z,100858.34
2022-12-28T07:22:01.287Z,100827.50
2022-12-28T07:24:31.099Z,100838.13
2022-12-28T07:26:59.403Z,100844.22
2022-12-28T07:29:27.703Z,100838.00
2022-12-28T07:31:56.064Z,100835.38
2022-12-28T07:34:24.480Z,100832.69
2022-12-28T07:36:52.804Z,100812.53
2022-12-28T07:39:21.116Z,100828.28
2022-12-28T07:41:50.777Z,100843.28
2022-12-28T07:44:27.911Z,100836.19
2022-12-28T07:46:57.791Z,100840.53
2022-12-28T07:49:26.050Z,100842.28
2022-12-28T07:51:54.337Z,100840.56
2022-12-28T07:54:22.767Z,100844.16
2022-12-28T07:56:52.405Z,100849.41
2022-12-28T07:59:25.961Z,100826.44
2022-12-28T08:01:57.756Z,100844.94
2022-12-28T08:04:26.253Z,100844.94
2022-12-28T08:06:54.549Z,100833.47
2022-12-28T08:09:22.908Z,100813.28
2022-12-28T08:11:52.658Z,100844.09
2022-12-28T08:14:21.149Z,100843.25
2022-12-28T08:16:49.458Z,100829.13
2022-12-28T08:19:17.747Z,100837.03
2022-12-28T08:21:47.058Z,100841.44
2022-12-28T08:24:17.573Z,100848.47
2022-12-28T08:26:47.456Z,100828.22
2022-12-28T08:29:20.461Z,100858.19
2022-12-28T08:31:50.215Z,100836.13
2022-12-28T08:34:23.078Z,100830.88
2022-12-28T08:36:51.436Z,100831.72
2022-12-28T08:39:19.929Z,100815.88
2022-12-28T08:41:49.893Z,100827.34
2022-12-28T08:44:19.709Z,100814.09
2022-12-28T08:46:48.133Z,100800.88
2022-12-28T08:49:16.730Z,100821.19
2022-12-28T08:51:45.278Z,100822.06
2022-12-28T08:54:14.876Z,100778.97
2022-12-28T08:56:45.808Z,100817.63
2022-12-28T08:59:16.896Z,100814.16
2022-12-28T09:01:48.211Z,100828.22
2022-12-28T09:04:18.823Z,100815.88
2022-12-28T09:06:47.616Z,100820.28
2022-12-28T09:09:19.285Z,100848.50
2022-12-28T09:11:48.443Z,100829.97
2022-12-28T09:14:23.184Z,100829.00
2022-12-28T09:16:54.556Z,100828.97
2022-12-28T09:19:23.205Z,100827.19
2022-12-28T09:21:53.152Z,100810.50
2022-12-28T09:24:22.131Z,100811.28
2022-12-28T09:26:52.579Z,100833.41
2022-12-28T09:29:21.269Z,100808.63
2022-12-28T09:31:49.679Z,100834.22
2022-12-28T09:34:37.275Z,100813.94
2022-12-28T09:37:07.059Z,100805.22
2022-12-28T09:39:35.876Z,100793.75
2022-12-28T09:42:09.473Z,100798.09
2022-12-28T09:45:00.549Z,100817.41
2022-12-28T09:47:39.598Z,100787.56
2022-12-28T09:50:31.063Z,100823.66
2022-12-28T09:53:19.741Z,100805.97
2022-12-28T09:55:58.874Z,100830.63
2022-12-28T09:58:28.777Z,100816.47
2022-12-28T10:00:59.932Z,100812.97
2022-12-28T10:03:34.705Z,100802.44
2022-12-28T10:06:13.309Z,100823.59
2022-12-28T10:08:46.856Z,100719.03
2022-12-28T10:11:20.351Z,100820.03
2022-12-28T10:13:55.930Z,100812.94
2022-12-28T10:16:27.850Z,100806.81
2022-12-28T10:18:56.646Z,100804.19
2022-12-28T10:21:32.881Z,100796.22
2022-12-28T10:26:51.181Z,100804.22
2022-12-28T10:29:22.463Z,100793.72
2022-12-28T10:32:02.370Z,100809.56
2022-12-28T10:34:33.928Z,100810.44
2022-12-28T10:37:15.965Z,100801.63
2022-12-28T10:39:51.593Z,100797.22
2022-12-28T10:42:27.597Z,100778.69
2022-12-28T10:45:04.263Z,100803.38
2022-12-28T10:47:36.508Z,100741.94
2022-12-28T10:52:59.768Z,100782.38
2022-12-28T10:55:31.580Z,100765.59
2022-12-28T10:58:29.124Z,100766.50
2022-12-28T11:04:08.401Z,100736.63
2022-12-28T11:06:52.519Z,100743.75
2022-12-28T11:09:25.378Z,100739.34
2022-12-28T11:11:57.052Z,100726.97
2022-12-28T11:14:33.457Z,100733.97
2022-12-28T11:17:17.666Z,100741.94
2022-12-28T11:19:48.299Z,100758.63
2022-12-28T11:22:23.352Z,100704.13
2022-12-28T11:24:52.074Z,100752.47
2022-12-28T11:27:23.893Z,100737.50
2022-12-28T11:29:55.519Z,100739.25
2022-12-28T11:32:29.647Z,100748.00
2022-12-28T11:34:59.803Z,100736.56
2022-12-28T11:37:28.396Z,100748.03
2022-12-28T11:39:58.575Z,100757.75
2022-12-28T11:42:56.078Z,100639.19
2022-12-28T11:45:54.029Z,100736.56
2022-12-28T11:48:51.165Z,100719.84
2022-12-28T11:51:23.477Z,100695.31
2022-12-28T11:53:59.068Z,100703.03
2022-12-28T11:56:29.879Z,100690.84
2022-12-28T11:59:23.195Z,100689.88
2022-12-28T12:01:54.259Z,100696.91
2022-12-28T12:04:33.565Z,100690.72
2022-12-28T12:07:31.251Z,100710.16
2022-12-28T12:10:34.050Z,100694.25
2022-12-28T12:13:40.927Z,100692.47
2022-12-28T12:16:21.809Z,100635.41
2022-12-28T12:18:54.540Z,100678.41
2022-12-28T12:21:31.612Z,100667.81
2022-12-28T12:24:26.697Z,100662.56
2022-12-28T12:26:59.698Z,100667.81
2022-12-28T12:29:38.279Z,100643.06
2022-12-28T12:32:15.712Z,100649.19
2022-12-28T12:34:47.714Z,100617.41
2022-12-28T12:37:38.222Z,100633.28
2022-12-28T12:40:52.804Z,100622.72
2022-12-28T12:43:36.045Z,100624.59
2022-12-28T12:46:36.121Z,100617.38
2022-12-28T12:49:47.175Z,100600.59
2022-12-28T12:52:29.457Z,100587.31
2022-12-28T12:55:15.149Z,100581.13
2022-12-28T12:57:58.020Z,100562.72
2022-12-28T13:00:48.497Z,100569.66
2022-12-28T13:03:25.386Z,100570.53
2022-12-28T13:06:00.540Z,100537.06
2022-12-28T13:08:37.759Z,100548.38
2022-12-28T13:11:10.652Z,100564.19
2022-12-28T13:13:41.332Z,100528.84
2022-12-28T13:16:12.354Z,100533.28
2022-12-28T13:18:45.237Z,100519.09
2022-12-28T13:21:22.078Z,100493.56
2022-12-28T13:23:52.083Z,100494.31
2022-12-28T13:26:29.046Z,100486.31
2022-12-28T13:29:01.731Z,100504.75
2022-12-28T13:31:38.609Z,100489.75
2022-12-28T13:34:18.388Z,100489.59
2022-12-28T13:36:53.747Z,100470.31
2022-12-28T13:39:23.895Z,100441.09
2022-12-28T13:41:55.111Z,100420.16
2022-12-28T13:44:37.386Z,100427.84
2022-12-28T13:47:20.095Z,100414.59
2022-12-28T13:49:56.705Z,100419.66
2022-12-28T13:52:28.728Z,100379.44
2022-12-28T13:55:01.777Z,100415.44
2022-12-28T13:57:52.643Z,100408.16
2022-12-28T14:00:22.409Z,100425.09
2022-12-28T14:02:56.260Z,100406.56
2022-12-28T14:05:28.712Z,100404.81
2022-12-28T14:07:59.175Z,100415.38
2022-12-28T14:10:30.306Z,100397.72
2022-12-28T14:12:59.913Z,100408.28
2022-12-28T14:15:28.318Z,100402.22
2022-12-28T14:17:58.718Z,100356.78
2022-12-28T14:20:27.386Z,100383.69
2022-12-28T14:22:55.931Z,100362.63
2022-12-28T14:25:24.961Z,100367.81
2022-12-28T14:28:00.280Z,100333.72
2022-12-28T14:30:32.024Z,100384.56
2022-12-28T14:33:22.276Z,100359.94
2022-12-28T14:35:56.504Z,100315.97
2022-12-28T14:38:30.149Z,100325.56
2022-12-28T14:41:01.423Z,100232.13
2022-12-28T14:43:32.752Z,100330.06
2022-12-28T14:46:18.979Z,100323.72
2022-12-28T14:48:48.915Z,100318.47
2022-12-28T14:51:38.575Z,100321.19
2022-12-28T14:54:21.072Z,100195.97
2022-12-28T14:56:55.044Z,100309.75
2022-12-28T14:59:28.753Z,100287.72
2022-12-28T15:01:57.512Z,100287.97
2022-12-28T15:04:35.934Z,100291.34
2022-12-28T15:07:05.232Z,100286.94
2022-12-28T15:09:33.648Z,100267.81
2022-12-28T15:12:10.763Z,100286.03
2022-12-28T15:14:39.247Z,100283.41
2022-12-28T15:17:08.784Z,100283.38
2022-12-28T15:19:38.871Z,100226.41
2022-12-28T15:22:07.330Z,100310.00
2022-12-28T15:24:35.737Z,100262.56
2022-12-28T15:27:05.168Z,100245.75
2022-12-28T15:32:22.434Z,100242.41
2022-12-28T15:34:52.127Z,100114.69
2022-12-28T15:37:20.639Z,100250.31
2022-12-28T15:39:49.734Z,100208.06
2022-12-28T15:42:18.103Z,100197.50
2022-12-28T15:44:48.664Z,100217.69
2022-12-28T15:47:17.031Z,100251.25
2022-12-28T15:49:45.328Z,100221.44
2022-12-28T15:52:15.083Z,100181.16
2022-12-28T15:54:47.204Z,100201.31
2022-12-28T15:57:16.311Z,100163.69
2022-12-28T15:59:44.623Z,100167.00
2022-12-28T16:02:13.832Z,100156.47
2022-12-28T16:04:42.454Z,100167.03
2022-12-28T16:07:11.188Z,100173.19
2022-12-28T16:09:40.889Z,100140.50
2022-12-28T16:12:09.867Z,100155.59
2022-12-28T16:14:38.268Z,100159.06
2022-12-28T16:17:06.567Z,100147.53
2022-12-28T16:19:35.242Z,100135.41
2022-12-28T16:22:03.660Z,100123.06
2022-12-28T16:24:32.061Z,100114.16
2022-12-28T16:27:02.006Z,100124.13
2022-12-28T16:29:30.635Z,100153.91
2022-12-28T16:32:01.819Z,100128.34
2022-12-28T16:34:31.755Z,100123.06
2022-12-28T16:37:00.649Z,100139.97
2022-12-28T16:39:30.649Z,100086.16
2022-12-28T16:42:00.898Z,100026.31
2022-12-28T16:44:29.648Z,100110.06
2022-12-28T16:46:59.648Z,100102.84
2022-12-28T16:49:29.620Z,100084.53
2022-12-28T16:51:58.387Z,100079.13
2022-12-28T16:54:29.031Z,100109.94
2022-12-28T16:56:57.520Z,100060.06
2022-12-28T16:59:29.458Z,100086.97
2022-12-28T17:01:59.490Z,100085.25
2022-12-28T17:04:28.187Z,100070.34
2022-12-28T17:06:56.812Z,100042.19
2022-12-28T17:09:25.329Z,100094.22
2022-12-28T17:11:53.705Z,100051.91
2022-12-28T17:14:37.009Z,100018.44
2022-12-28T17:17:07.935Z,100043.88
2022-12-28T17:19:37.113Z,100068.78
2022-12-28T17:22:06.019Z,100027.31
2022-12-28T17:24:34.778Z,100017.63
2022-12-28T17:27:08.197Z,100065.84
2022-12-28T17:29:38.671Z,100034.44
2022-12-28T17:32:09.378Z,100026.28
2022-12-28T17:34:38.593Z,100037.69
2022-12-28T17:37:06.989Z,100006.69
2022-12-28T17:39:40.246Z,100007.00
2022-12-28T17:42:10.299Z,100012.88
2022-12-28T17:44:39.088Z,100009.38
2022-12-28T17:47:09.696Z,100005.81
2022-12-28T17:49:37.895Z,100009.28
2022-12-28T17:52:07.026Z,99963.44
2022-12-28T17:54:35.677Z,99996.84
2022-12-28T17:57:04.273Z,99960.91
2022-12-28T17:59:33.103Z,99996.75
2022-12-28T18:02:05.015Z,99997.66
2022-12-28T18:04:35.546Z,100000.16
2022-12-28T18:07:04.579Z,100051.41
2022-12-28T18:09:32.898Z,99997.69
2022-12-28T18:12:02.069Z,100015.31
2022-12-28T18:14:30.705Z,100009.97
2022-12-28T18:16:59.171Z,99960.63
2022-12-28T18:19:27.779Z,99979.16
2022-12-28T18:21:57.563Z,99971.09
2022-12-28T18:24:25.915Z,99971.06
2022-12-28T18:26:54.514Z,99967.50
2022-12-28T18:29:23.072Z,99977.28
2022-12-28T18:31:51.379Z,99977.41
2022-12-28T18:34:19.807Z,99912.25
2022-12-28T18:36:49.285Z,99960.31
2022-12-28T18:39:19.054Z,99965.59
2022-12-28T18:41:47.487Z,99954.16
2022-12-28T18:44:15.999Z,99944.44
2022-12-28T18:46:44.452Z,99928.63
2022-12-28T18:49:12.935Z,99946.16
2022-12-28T18:51:41.289Z,99937.38
2022-12-28T18:54:09.657Z,99917.03
2022-12-28T18:56:39.762Z,99946.13
2022-12-28T18:59:08.098Z,99951.41
2022-12-28T19:04:29.661Z,99953.97
2022-12-28T19:06:58.264Z,99939.81
2022-12-28T19:09:26.714Z,99832.50
2022-12-28T19:11:56.686Z,99962.81
2022-12-28T19:14:25.295Z,99931.75
2022-12-28T19:16:53.695Z,99945.25
2022-12-28T19:19:22.335Z,99899.44
2022-12-28T19:21:56.550Z,99937.06
2022-12-28T19:24:27.050Z,99922.84
2022-12-28T19:26:57.034Z,99950.25
2022-12-28T19:29:25.544Z,99821.94
2022-12-28T19:31:54.890Z,99933.31
2022-12-28T19:34:23.323Z,99933.97
2022-12-28T19:36:51.741Z,99912.16
2022-12-28T19:39:20.462Z,99929.34
2022-12-28T19:41:48.846Z,99910.91
2022-12-28T19:44:20.868Z,99911.88
2022-12-28T19:46:49.623Z,99877.56
2022-12-28T19:49:18.047Z,99909.19
2022-12-28T19:51:46.738Z,99937.28
2022-12-28T19:54:15.112Z,99905.19
2022-12-28T19:56:43.604Z,99913.38
2022-12-28T19:59:11.917Z,99908.81
2022-12-28T20:01:41.776Z,99906.22
2022-12-28T20:04:13.868Z,99909.47
2022-12-28T20:06:43.799Z,99914.06
2022-12-28T20:09:14.275Z,99904.09
2022-12-28T20:11:43.324Z,99885.13
2022-12-28T20:14:14.463Z,99877.78
2022-12-28T20:16:44.704Z,99906.63
2022-12-28T20:19:13.975Z,99901.34
2022-12-28T20:21:42.739Z,99897.69
2022-12-28T20:24:16.463Z,99902.13
2022-12-28T20:26:44.874Z,99880.78
2022-12-28T20:29:16.195Z,99888.03
2022-12-28T20:31:46.102Z,99873.03
2022-12-28T20:34:14.600Z,99904.66
2022-12-28T20:36:43.238Z,99892.28
2022-12-28T20:39:11.676Z,99901.19
2022-12-28T20:41:56.803Z,99893.97
2022-12-28T20:44:28.286Z,99901.09
2022-12-28T20:46:58.898Z,99924.00
2022-12-28T20:49:28.412Z,99918.75
2022-12-28T20:51:57.022Z,99878.91
2022-12-28T20:54:26.368Z,99894.59
2022-12-28T20:56:56.179Z,99902.41
2022-12-28T20:59:26.013Z,99886.50
2022-12-28T21:01:55.179Z,99740.75
2022-12-28T21:04:26.047Z,99862.75
2022-12-28T21:06:54.964Z,99877.66
2022-12-28T21:09:23.474Z,99836.00
2022-12-28T21:11:51.949Z,99871.53
2022-12-28T21:14:20.809Z,99899.75
2022-12-28T21:16:49.461Z,99869.81
2022-12-28T21:19:18.014Z,99835.31
2022-12-28T21:21:49.568Z,99845.94
2022-12-28T21:24:17.985Z,99866.28
2022-12-28T21:26:46.306Z,99869.78
2022-12-28T21:29:17.917Z,99877.63
2022-12-28T21:31:51.650Z,99842.44
2022-12-28T21:34:20.124Z,99827.47
2022-12-28T21:36:49.953Z,99841.50
2022-12-28T21:39:18.558Z,99851.22
2022-12-28T21:41:49.779Z,99824.88
2022-12-28T21:44:21.144Z,99839.75
2022-12-28T21:46:51.853Z,99847.75
2022-12-28T21:49:20.610Z,99852.78
2022-12-28T21:51:51.464Z,99878.56
2022-12-28T21:54:22.075Z,99844.94
2022-12-28T21:56:53.629Z,99838.84
2022-12-28T21:59:23.334Z,99817.03
2022-12-28T22:02:09.871Z,99816.88
2022-12-28T22:05:02.250Z,99801.81
2022-12-28T22:07:33.299Z,99831.22
2022-12-28T22:10:19.193Z,99822.44
2022-12-28T22:12:47.683Z,99830.88
2022-12-28T22:15:36.122Z,99804.72
2022-12-28T22:18:06.769Z,99803.53
2022-12-28T22:20:37.396Z,99819.63
2022-12-28T22:23:07.424Z,99821.50
2022-12-28T22:25:37.408Z,99806.44
2022-12-28T22:28:07.018Z,99777.59
2022-12-28T22:30:37.660Z,99801.81
2022-12-28T22:33:06.245Z,99805.34
2022-12-28T22:35:35.191Z,99805.50
2022-12-28T22:38:03.864Z,99784.25
2022-12-28T22:40:33.594Z,99807.94
2022-12-28T22:43:01.902Z,99837.75
2022-12-28T22:45:30.298Z,99819.09
2022-12-28T22:47:59.576Z,99804.19
2022-12-28T22:50:29.385Z,99782.94
2022-12-28T22:52:58.407Z,99796.19
2022-12-28T22:55:26.794Z,99786.41
2022-12-28T22:57:56.564Z,99811.25
2022-12-28T23:00:24.915Z,99747.13
2022-12-28T23:02:53.415Z,99797.84
2022-12-28T23:05:21.865Z,99790.84
2022-12-28T23:07:50.210Z,99769.47
2022-12-28T23:10:18.738Z,99776.81
2022-12-28T23:12:47.079Z,99776.66
2022-12-28T23:15:16.200Z,99776.59
2022-12-28T23:17:44.535Z,99762.41
2022-12-28T23:20:30.994Z,99765.78
2022-12-28T23:23:17.091Z,99770.34
2022-12-28T23:26:03.238Z,99768.63
2022-12-28T23:28:31.608Z,99769.41
2022-12-28T23:31:02.050Z,99765.88
2022-12-28T23:33:30.503Z,99766.50
2022-12-28T23:36:03.743Z,99735.78
2022-12-28T23:38:33.560Z,99748.75
2022-12-28T23:41:39.495Z,99749.41
2022-12-28T23:44:08.015Z,99740.47
2022-12-28T23:46:37.743Z,99756.19
2022-12-28T23:49:07.824Z,99727.19
2022-12-28T23:51:36.162Z,99705.63
2022-12-28T23:54:04.537Z,99706.16
2022-12-28T23:56:32.904Z,99705.75
2022-12-28T23:59:01.195Z,99720.88
